Time;durP1;ratioP1;P1;durP2;ratioP2;P2;SDS_P1;SDS_P2;PMS_P1;PMS_P2;Temp;Humidity;BMP_temperature;BMP_pressure;BME280_temperature;BME280_humidity;BME280_pressure;Samples;Min_cycle;Max_cycle;Signal;HPM_P1;HPM_P2
2022/04/05 00:00:43;;;;;;;36.92;20.67;;;;;;;;;;4870660;23;19930;-95
2022/04/05 00:05:39;;;;;;;36.03;21.48;;;;;;;;;;4882874;29;20095;-96
2022/04/05 00:08:05;;;;;;;30.23;19.10;;;;;;;;;;4869148;29;20021;-96
2022/04/05 00:10:31;;;;;;;35.63;19.23;;;;;;;;;;4885524;29;20116;-96
2022/04/05 00:12:58;;;;;;;38.63;20.90;;;;;;;;;;4885435;29;20400;-96
2022/04/05 00:15:24;;;;;;;32.90;19.83;;;;;;;;;;4886350;29;20293;-96
2022/04/05 00:17:50;;;;;;;32.72;20.13;;;;;;;;;;4887184;29;20029;-95
2022/04/05 00:20:16;;;;;;;30.52;18.92;;;;;;;;;;4885284;29;20029;-95
2022/04/05 00:22:42;;;;;;;31.27;19.27;;;;;;;;;;4884743;29;20071;-96
2022/04/05 00:25:08;;;;;;;26.52;18.23;;;;;;;;;;4886624;29;20033;-96
2022/04/05 00:27:34;;;;;;;29.70;18.13;;;;;;;;;;4888100;29;20029;-96
2022/04/05 00:30:00;;;;;;;24.88;17.80;;;;;;;;;;4892485;29;20021;-96
2022/04/05 00:32:27;;;;;;;25.98;16.85;;;;;;;;;;4899119;29;20050;-95
2022/04/05 00:34:55;;;;;;;27.77;17.83;;;;;;;;;;4880261;29;20041;-96
2022/04/05 00:37:28;;;;;;;24.88;16.27;;;;;;;;;;4893575;29;20045;-96
2022/04/05 00:40:04;;;;;;;22.02;14.52;;;;;;;;;;4877695;29;20033;-95
2022/04/05 00:42:30;;;;;;;20.10;14.35;;;;;;;;;;4884969;29;20049;-94
2022/04/05 00:44:56;;;;;;;18.00;13.68;;;;;;;;;;4884463;29;20320;-95
2022/04/05 00:47:24;;;;;;;20.00;13.82;;;;;;;;;;4887812;29;20026;-96
2022/04/05 00:49:51;;;;;;;19.17;13.80;;;;;;;;;;4890423;29;20100;-96
2022/04/05 00:52:18;;;;;;;18.98;13.65;;;;;;;;;;4875224;29;20033;-96
2022/04/05 00:54:48;;;;;;;21.55;13.73;;;;;;;;;;4891787;29;20049;-96
2022/04/05 00:57:16;;;;;;;20.30;12.98;;;;;;;;;;4890995;29;20113;-96
2022/04/05 00:59:43;;;;;;;20.08;12.70;;;;;;;;;;4891171;29;20060;-96
2022/04/05 01:02:14;;;;;;;21.08;13.48;;;;;;;;;;4890994;29;20472;-96
2022/04/05 01:04:47;;;;;;;19.42;12.93;;;;;;;;;;4874381;29;20061;-96
2022/04/05 01:07:17;;;;;;;21.15;14.45;;;;;;;;;;4873870;29;20021;-95
2022/04/05 01:09:43;;;;;;;20.10;14.02;;;;;;;;;;4855868;29;20033;-95
2022/04/05 01:12:10;;;;;;;21.08;13.70;;;;;;;;;;4867211;29;20049;-95
2022/04/05 01:14:37;;;;;;;20.92;14.05;;;;;;;;;;4867704;29;20037;-94
2022/04/05 01:17:03;;;;;;;18.95;13.52;;;;;;;;;;4851120;29;20146;-94
2022/04/05 01:19:30;;;;;;;20.10;14.05;;;;;;;;;;4850973;29;20128;-94
2022/04/05 01:21:56;;;;;;;21.08;14.50;;;;;;;;;;4867399;29;20110;-94
2022/04/05 01:24:22;;;;;;;26.33;14.48;;;;;;;;;;4866195;29;20036;-96
2022/04/05 01:26:49;;;;;;;21.90;14.38;;;;;;;;;;4850734;29;20029;-94
2022/04/05 01:29:16;;;;;;;20.48;14.13;;;;;;;;;;4867261;29;20029;-95
2022/04/05 01:31:44;;;;;;;18.65;14.57;;;;;;;;;;4850738;29;20120;-95
2022/04/05 01:34:11;;;;;;;20.25;14.45;;;;;;;;;;4851956;29;20037;-95
2022/04/05 01:36:40;;;;;;;22.15;14.25;;;;;;;;;;4869837;29;20034;-96
2022/04/05 01:42:12;;;;;;;22.92;15.18;;;;;;;;;;4869381;29;20082;-96
2022/04/05 01:44:38;;;;;;;24.17;14.88;;;;;;;;;;4868940;29;20061;-96
2022/04/05 01:47:05;;;;;;;21.00;15.15;;;;;;;;;;4857251;29;20029;-95
2022/04/05 01:49:44;;;;;;;23.35;15.50;;;;;;;;;;4876852;29;20031;-96
2022/04/05 01:52:11;;;;;;;25.50;16.73;;;;;;;;;;4872889;29;20029;-95
2022/04/05 01:57:41;;;;;;;26.10;16.58;;;;;;;;;;4872510;29;20036;-96
2022/04/05 02:00:14;;;;;;;27.05;17.25;;;;;;;;;;4855327;29;20037;-96
2022/04/05 02:02:40;;;;;;;28.30;17.30;;;;;;;;;;4853237;29;20120;-96
2022/04/05 02:05:07;;;;;;;26.05;16.90;;;;;;;;;;4853555;29;20056;-96
2022/04/05 02:07:34;;;;;;;27.80;17.30;;;;;;;;;;4869531;29;20069;-96
2022/04/05 02:13:04;;;;;;;29.35;16.88;;;;;;;;;;4870222;29;20090;-96
2022/04/05 02:15:31;;;;;;;26.88;19.00;;;;;;;;;;4868830;29;20026;-96
2022/04/05 02:17:57;;;;;;;25.42;17.10;;;;;;;;;;4869264;29;20038;-96
2022/04/05 02:20:23;;;;;;;29.48;18.63;;;;;;;;;;4868675;29;20431;-95
2022/04/05 02:22:52;;;;;;;29.45;17.77;;;;;;;;;;4868817;29;20036;-96
2022/04/05 02:25:18;;;;;;;26.70;17.60;;;;;;;;;;4853414;29;20048;-96
2022/04/05 02:35:29;;;;;;;30.15;19.42;;;;;;;;;;4864914;29;20073;-94
2022/04/05 02:37:59;;;;;;;27.88;18.52;;;;;;;;;;4851088;29;20032;-96
2022/04/05 02:43:30;;;;;;;29.98;19.30;;;;;;;;;;4871717;29;20096;-95
2022/04/05 02:45:58;;;;;;;29.67;20.05;;;;;;;;;;4870646;29;20029;-96
2022/04/05 02:48:24;;;;;;;33.92;20.42;;;;;;;;;;4866856;29;20290;-95
2022/04/05 02:50:50;;;;;;;33.40;20.05;;;;;;;;;;4849553;29;20029;-95
2022/04/05 02:53:17;;;;;;;28.92;20.13;;;;;;;;;;4852249;29;20029;-95
2022/04/05 02:58:48;;;;;;;34.78;20.20;;;;;;;;;;4866155;29;20057;-93
2022/04/05 03:01:14;;;;;;;33.10;19.58;;;;;;;;;;4865556;29;20053;-94
2022/04/05 03:03:40;;;;;;;32.25;19.73;;;;;;;;;;4848771;29;20128;-95
2022/04/05 03:06:06;;;;;;;30.00;20.30;;;;;;;;;;4865458;29;20033;-94
2022/04/05 03:08:32;;;;;;;36.38;20.63;;;;;;;;;;4864335;29;20033;-95
2022/04/05 03:10:59;;;;;;;32.80;21.35;;;;;;;;;;4847803;29;20406;-96
2022/04/05 03:13:25;;;;;;;29.60;20.75;;;;;;;;;;4846649;29;20034;-95
2022/04/05 03:15:51;;;;;;;30.17;21.10;;;;;;;;;;4847341;29;20033;-94
2022/04/05 03:18:17;;;;;;;34.80;22.58;;;;;;;;;;4847320;29;20059;-94
2022/04/05 03:20:43;;;;;;;37.78;20.80;;;;;;;;;;4831073;29;20045;-94
2022/04/05 03:23:09;;;;;;;34.13;21.40;;;;;;;;;;4847701;29;20026;-96
2022/04/05 03:25:35;;;;;;;30.75;21.10;;;;;;;;;;4855128;29;20112;-94
2022/04/05 03:28:02;;;;;;;36.13;23.98;;;;;;;;;;4847620;29;20384;-95
2022/04/05 03:30:28;;;;;;;51.60;29.38;;;;;;;;;;4847865;29;20045;-94
2022/04/05 03:32:54;;;;;;;47.92;28.95;;;;;;;;;;4830793;29;20041;-96
2022/04/05 03:35:20;;;;;;;51.20;30.15;;;;;;;;;;4858430;29;20409;-96
2022/04/05 03:37:47;;;;;;;42.97;27.45;;;;;;;;;;4847529;29;20055;-95
2022/04/05 03:43:16;;;;;;;40.08;25.20;;;;;;;;;;4849154;29;20098;-95
2022/04/05 03:45:42;;;;;;;40.17;25.92;;;;;;;;;;4832814;29;20065;-96
2022/04/05 03:48:09;;;;;;;41.92;25.90;;;;;;;;;;4832940;29;20063;-95
2022/04/05 03:50:35;;;;;;;34.75;24.08;;;;;;;;;;4863095;29;20029;-94
2022/04/05 03:53:01;;;;;;;37.88;23.52;;;;;;;;;;4851379;29;20041;-95
2022/04/05 03:58:31;;;;;;;36.60;23.75;;;;;;;;;;4866865;29;20492;-95
2022/04/05 04:00:57;;;;;;;40.75;24.73;;;;;;;;;;4831367;29;20318;-95
2022/04/05 04:03:23;;;;;;;41.67;24.63;;;;;;;;;;4834034;29;20046;-95
2022/04/05 04:05:49;;;;;;;43.03;24.70;;;;;;;;;;4846838;29;20034;-95
2022/04/05 04:08:16;;;;;;;38.40;24.65;;;;;;;;;;4831106;29;20087;-94
2022/04/05 04:13:45;;;;;;;49.10;27.17;;;;;;;;;;4847092;29;20118;-95
2022/04/05 04:16:11;;;;;;;41.88;25.98;;;;;;;;;;4836653;29;20036;-95
2022/04/05 04:18:37;;;;;;;41.17;25.88;;;;;;;;;;4864662;29;20417;-95
2022/04/05 04:21:03;;;;;;;50.85;27.15;;;;;;;;;;4848565;29;20033;-96
2022/04/05 04:23:29;;;;;;;53.55;29.65;;;;;;;;;;4849535;29;20056;-95
2022/04/05 04:31:45;;;;;;;57.95;34.53;;;;;;;;;;5579535;23;20041;-96
2022/04/05 04:34:17;;;;;;;58.30;33.90;;;;;;;;;;4871444;29;20035;-95
2022/04/05 04:42:23;;;;;;;62.63;34.17;;;;;;;;;;4876266;29;20040;-96
2022/04/05 06:03:17;;;;;;;54.35;29.38;;;;;;;;;;5964456;23;20035;31
2022/04/05 06:17:30;;;;;;;42.97;25.05;;;;;;;;;;4879369;29;20036;-95
2022/04/05 06:23:33;;;;;;;36.35;20.55;;;;;;;;;;5263448;23;20093;-95
2022/04/05 06:32:09;;;;;;;36.03;21.33;;;;;;;;;;4911228;23;20067;-96
2022/04/05 06:34:46;;;;;;;34.17;19.83;;;;;;;;;;4911478;23;20177;-94
2022/04/05 06:37:12;;;;;;;33.55;20.13;;;;;;;;;;4894903;29;20036;-96
2022/04/05 06:39:44;;;;;;;25.67;17.23;;;;;;;;;;4881825;29;20029;-95
2022/04/05 06:52:41;;;;;;;21.08;14.10;;;;;;;;;;5752625;23;20078;-95
2022/04/05 06:55:10;;;;;;;22.73;15.05;;;;;;;;;;4887656;29;20025;-94
2022/04/05 06:57:36;;;;;;;17.52;12.95;;;;;;;;;;4886662;29;20029;-95
2022/04/05 07:00:05;;;;;;;18.40;11.10;;;;;;;;;;4888585;29;20025;-96
2022/04/05 07:02:31;;;;;;;20.20;10.63;;;;;;;;;;4872946;29;20037;-96
2022/04/05 07:04:57;;;;;;;15.23;10.55;;;;;;;;;;4850227;29;20049;-94
2022/04/05 07:07:24;;;;;;;16.65;10.55;;;;;;;;;;4867990;29;20029;-95
2022/04/05 07:09:51;;;;;;;15.15;10.77;;;;;;;;;;4871107;29;20428;-95
2022/04/05 07:12:17;;;;;;;13.13;7.72;;;;;;;;;;4867190;29;20342;-96
2022/04/05 07:14:43;;;;;;;11.65;7.60;;;;;;;;;;4867103;29;20034;-96
2022/04/05 07:17:11;;;;;;;10.65;7.82;;;;;;;;;;4866691;29;20110;-95
2022/04/05 07:19:46;;;;;;;13.35;7.80;;;;;;;;;;4872875;29;20033;-96
2022/04/05 07:22:14;;;;;;;12.35;6.50;;;;;;;;;;4874294;29;20040;-96
2022/04/05 07:24:40;;;;;;;17.80;8.93;;;;;;;;;;4867347;29;20420;-94
2022/04/05 07:27:06;;;;;;;15.18;6.75;;;;;;;;;;4867585;29;20325;-96
2022/04/05 07:29:32;;;;;;;15.15;8.50;;;;;;;;;;4850912;29;20026;-95
2022/04/05 07:32:00;;;;;;;12.00;6.50;;;;;;;;;;4867143;29;20021;-95
2022/04/05 07:34:26;;;;;;;15.38;10.40;;;;;;;;;;4850630;29;20065;-95
2022/04/05 07:36:52;;;;;;;15.93;9.75;;;;;;;;;;4850368;29;20045;-95
2022/04/05 07:39:21;;;;;;;12.93;7.82;;;;;;;;;;4872382;29;20029;-96
2022/04/05 07:41:47;;;;;;;14.65;7.90;;;;;;;;;;4858793;29;20041;-96
2022/04/05 07:44:23;;;;;;;12.07;7.85;;;;;;;;;;4873872;29;20016;-96
2022/04/05 07:47:06;;;;;;;10.05;7.32;;;;;;;;;;4878508;29;20085;-96
2022/04/05 07:55:40;;;;;;;10.25;6.82;;;;;;;;;;4876511;29;20146;-95
2022/04/05 07:58:08;;;;;;;12.38;6.07;;;;;;;;;;4862714;29;20026;-95
2022/04/05 08:00:46;;;;;;;13.40;6.93;;;;;;;;;;4885891;29;20045;-94
2022/04/05 08:03:12;;;;;;;10.07;6.80;;;;;;;;;;4866512;29;20029;-96
2022/04/05 08:08:14;;;;;;;10.32;4.50;;;;;;;;;;5396250;23;19924;-95
2022/04/05 08:11:02;;;;;;;11.98;4.07;;;;;;;;;;4897924;29;20033;-95
2022/04/05 08:13:29;;;;;;;7.63;4.53;;;;;;;;;;4899074;29;20033;-96
2022/04/05 08:15:56;;;;;;;6.13;3.80;;;;;;;;;;4901776;29;20025;-95
2022/04/05 08:18:22;;;;;;;10.07;5.47;;;;;;;;;;4913117;29;20033;-96
2022/04/05 08:20:48;;;;;;;6.60;4.55;;;;;;;;;;4918203;29;20033;-95
2022/04/05 08:23:15;;;;;;;5.25;4.03;;;;;;;;;;4917427;29;20021;-96
2022/04/05 08:25:41;;;;;;;8.35;4.30;;;;;;;;;;4915154;29;20029;-96
2022/04/05 08:28:07;;;;;;;6.05;3.47;;;;;;;;;;4915826;29;20048;-96
2022/04/05 08:30:33;;;;;;;8.18;3.92;;;;;;;;;;4899900;29;20067;-96
2022/04/05 08:33:01;;;;;;;6.03;3.17;;;;;;;;;;4916688;29;20029;-96
2022/04/05 08:35:27;;;;;;;5.78;4.15;;;;;;;;;;4917464;29;20033;-96
2022/04/05 08:37:56;;;;;;;5.25;3.65;;;;;;;;;;4900011;29;20052;-96
2022/04/05 08:40:37;;;;;;;6.03;3.88;;;;;;;;;;4917041;29;20032;-96
2022/04/05 08:43:03;;;;;;;6.17;3.50;;;;;;;;;;4915713;29;20084;-96
2022/04/05 08:45:30;;;;;;;5.45;3.58;;;;;;;;;;4900049;29;20033;-95
2022/04/05 08:47:59;;;;;;;4.50;3.42;;;;;;;;;;4899228;29;20025;-96
2022/04/05 08:50:30;;;;;;;8.38;4.30;;;;;;;;;;4900082;29;20040;-95
2022/04/05 08:52:59;;;;;;;6.38;3.95;;;;;;;;;;4908597;29;20024;-95
2022/04/05 08:55:25;;;;;;;11.93;6.18;;;;;;;;;;4891782;29;20032;-96
2022/04/05 08:57:51;;;;;;;10.70;5.22;;;;;;;;;;4908962;29;20056;-95
2022/04/05 09:00:19;;;;;;;14.00;5.55;;;;;;;;;;4908295;29;20040;-96
2022/04/05 09:02:56;;;;;;;5.35;4.25;;;;;;;;;;4907705;29;20039;-96
2022/04/05 09:05:26;;;;;;;8.80;5.10;;;;;;;;;;4873180;29;20105;-96
2022/04/05 09:07:52;;;;;;;5.70;3.97;;;;;;;;;;4888560;29;20045;-96
2022/04/05 09:10:19;;;;;;;6.47;4.00;;;;;;;;;;4871299;29;20029;-95
2022/04/05 09:12:46;;;;;;;9.45;4.90;;;;;;;;;;4872077;29;20037;-95
2022/04/05 09:15:21;;;;;;;8.00;4.90;;;;;;;;;;4892037;29;20121;-95
2022/04/05 09:17:48;;;;;;;6.63;4.50;;;;;;;;;;4888083;29;20430;-95
2022/04/05 09:20:15;;;;;;;5.50;3.95;;;;;;;;;;4888067;29;20033;-96
2022/04/05 09:22:42;;;;;;;7.35;3.53;;;;;;;;;;4890815;29;20035;-96
2022/04/05 09:25:12;;;;;;;6.15;3.80;;;;;;;;;;4890029;29;20041;-96
2022/04/05 09:27:43;;;;;;;5.32;3.83;;;;;;;;;;4890528;29;20025;-94
2022/04/05 09:30:14;;;;;;;8.93;4.40;;;;;;;;;;4875716;29;20413;-96
2022/04/05 09:32:42;;;;;;;8.30;5.00;;;;;;;;;;4888860;29;20423;-96
2022/04/05 09:35:08;;;;;;;12.35;9.43;;;;;;;;;;4872317;29;20411;-96
2022/04/05 09:37:38;;;;;;;5.97;4.22;;;;;;;;;;4892175;29;20033;-96
2022/04/05 09:40:39;;;;;;;9.02;4.05;;;;;;;;;;4879110;29;20040;-96
2022/04/05 09:43:09;;;;;;;10.88;5.07;;;;;;;;;;4889997;23;20049;-96
2022/04/05 09:45:46;;;;;;;4.78;3.47;;;;;;;;;;4879771;29;20036;-96
2022/04/05 09:48:14;;;;;;;7.45;3.58;;;;;;;;;;4894719;29;20021;-96
2022/04/05 09:50:59;;;;;;;4.97;3.78;;;;;;;;;;4875947;29;20111;-96
2022/04/05 09:53:41;;;;;;;8.45;4.53;;;;;;;;;;4872734;29;20112;-95
2022/04/05 09:56:07;;;;;;;7.05;3.75;;;;;;;;;;4896513;23;20088;-96
2022/04/05 09:58:34;;;;;;;9.38;4.03;;;;;;;;;;4889249;29;20039;-95
2022/04/05 10:01:08;;;;;;;6.05;4.60;;;;;;;;;;4888137;29;20033;-96
2022/04/05 10:03:39;;;;;;;7.32;4.35;;;;;;;;;;4864172;29;20030;-96
2022/04/05 10:06:05;;;;;;;11.23;4.47;;;;;;;;;;4868929;29;20093;-96
2022/04/05 10:08:35;;;;;;;7.00;4.88;;;;;;;;;;4873005;29;20030;-96
2022/04/05 10:11:01;;;;;;;6.78;3.90;;;;;;;;;;4868438;29;20030;-94
2022/04/05 10:13:28;;;;;;;9.63;5.10;;;;;;;;;;4855459;29;20021;-96
2022/04/05 10:15:54;;;;;;;6.55;4.22;;;;;;;;;;4870832;29;20033;-96
2022/04/05 10:18:20;;;;;;;5.07;3.53;;;;;;;;;;4858504;29;20029;-95
2022/04/05 10:20:50;;;;;;;6.90;3.90;;;;;;;;;;4852144;29;20121;-96
2022/04/05 10:23:20;;;;;;;4.45;3.55;;;;;;;;;;4867118;29;20034;-95
2022/04/05 10:25:51;;;;;;;8.20;4.80;;;;;;;;;;4850496;29;20046;-96
2022/04/05 10:28:19;;;;;;;5.80;3.78;;;;;;;;;;4866719;29;20428;-94
2022/04/05 10:30:48;;;;;;;5.38;3.28;;;;;;;;;;4866384;29;20058;-95
2022/04/05 10:33:27;;;;;;;7.60;4.40;;;;;;;;;;4867169;29;20041;-96
2022/04/05 10:35:54;;;;;;;6.22;4.03;;;;;;;;;;4867271;29;20025;-95
2022/04/05 10:38:20;;;;;;;8.85;3.97;;;;;;;;;;4867231;29;20116;-96
2022/04/05 10:41:05;;;;;;;7.47;3.92;;;;;;;;;;4866349;29;20444;-95
2022/04/05 10:43:32;;;;;;;5.47;3.40;;;;;;;;;;4866270;29;20373;-95
2022/04/05 10:45:58;;;;;;;7.30;3.83;;;;;;;;;;4866055;29;20438;-96
2022/04/05 10:48:27;;;;;;;6.57;3.80;;;;;;;;;;4865904;29;20034;-95
2022/04/05 10:51:03;;;;;;;4.72;3.58;;;;;;;;;;4865269;29;20060;-94
2022/04/05 10:53:32;;;;;;;8.68;4.40;;;;;;;;;;4866108;29;20040;-95
2022/04/05 10:56:09;;;;;;;4.82;3.70;;;;;;;;;;4865926;29;20064;-95
2022/04/05 10:58:48;;;;;;;6.05;3.83;;;;;;;;;;4849766;29;20074;-95
2022/04/05 11:01:18;;;;;;;6.43;4.18;;;;;;;;;;4849740;29;20040;-95
2022/04/05 11:04:04;;;;;;;6.85;3.13;;;;;;;;;;4849908;29;20113;-94
2022/04/05 11:06:30;;;;;;;6.53;3.30;;;;;;;;;;4870500;29;20046;-95
2022/04/05 11:08:58;;;;;;;5.50;2.97;;;;;;;;;;4867904;29;20045;-96
2022/04/05 11:11:25;;;;;;;6.28;3.75;;;;;;;;;;4867494;29;20351;-95
2022/04/05 11:14:01;;;;;;;6.30;3.08;;;;;;;;;;4867241;29;20320;-96
2022/04/05 11:16:28;;;;;;;6.10;3.28;;;;;;;;;;4867832;29;20032;-95
2022/04/05 11:18:57;;;;;;;8.15;4.13;;;;;;;;;;4866694;29;20041;-96
2022/04/05 11:21:23;;;;;;;4.43;3.25;;;;;;;;;;4867004;29;20050;-95
2022/04/05 11:23:50;;;;;;;6.45;3.28;;;;;;;;;;4865961;29;20033;-96
2022/04/05 11:26:23;;;;;;;5.70;2.78;;;;;;;;;;4849013;29;20132;-96
2022/04/05 11:28:50;;;;;;;5.60;3.10;;;;;;;;;;4865508;29;20037;-95
2022/04/05 11:31:37;;;;;;;3.22;2.42;;;;;;;;;;4849472;29;20053;-94
2022/04/05 11:34:23;;;;;;;4.18;2.47;;;;;;;;;;4848623;29;20039;-95
2022/04/05 11:36:49;;;;;;;5.55;2.90;;;;;;;;;;4865323;29;20531;-95
2022/04/05 11:39:15;;;;;;;7.97;3.95;;;;;;;;;;4867134;29;20400;-96
2022/04/05 11:41:41;;;;;;;3.83;2.45;;;;;;;;;;4849415;29;20068;-95
2022/04/05 11:44:13;;;;;;;9.38;5.35;;;;;;;;;;4866732;29;20108;-96
2022/04/05 11:46:39;;;;;;;;;;;;;;;;;;4866289;29;20109;-96
2022/04/05 11:49:11;;;;;;;8.98;3.38;;;;;;;;;;4865653;29;19955;-95
2022/04/05 11:51:37;;;;;;;6.45;2.85;;;;;;;;;;4865645;29;20026;-96
2022/04/05 11:54:08;;;;;;;8.40;4.63;;;;;;;;;;4865512;29;20424;-95
2022/04/05 11:56:34;;;;;;;5.43;2.92;;;;;;;;;;4849921;29;20041;-96
2022/04/05 11:59:01;;;;;;;4.93;3.42;;;;;;;;;;4849400;29;20025;-96
2022/04/05 12:01:29;;;;;;;9.15;4.25;;;;;;;;;;4866258;29;20025;-96
2022/04/05 12:03:55;;;;;;;3.13;2.55;;;;;;;;;;4866098;29;20094;-95
2022/04/05 12:06:23;;;;;;;4.93;2.50;;;;;;;;;;4849774;29;20064;-96
2022/04/05 12:08:50;;;;;;;5.35;4.32;;;;;;;;;;4849097;29;20045;-95
2022/04/05 12:11:18;;;;;;;8.00;2.90;;;;;;;;;;4851370;29;20033;-94
2022/04/05 12:13:52;;;;;;;3.13;2.33;;;;;;;;;;4879694;29;20029;-96
2022/04/05 12:16:19;;;;;;;4.10;2.15;;;;;;;;;;4883781;29;20037;-96
2022/04/05 12:18:46;;;;;;;4.43;2.28;;;;;;;;;;4867613;29;20037;-96
2022/04/05 12:21:12;;;;;;;9.23;2.30;;;;;;;;;;4884309;29;20021;-94
2022/04/05 12:23:40;;;;;;;5.53;2.83;;;;;;;;;;4887082;29;20029;-96
2022/04/05 12:26:12;;;;;;;2.97;2.40;;;;;;;;;;4887125;29;20065;-95
2022/04/05 12:28:46;;;;;;;6.93;3.10;;;;;;;;;;4887517;29;20021;-96
2022/04/05 12:31:12;;;;;;;8.00;3.05;;;;;;;;;;4875873;29;20048;-95
2022/04/05 12:33:39;;;;;;;5.72;3.50;;;;;;;;;;4889917;29;20113;-96
2022/04/05 12:36:07;;;;;;;3.95;2.72;;;;;;;;;;4883572;29;20025;-95
2022/04/05 12:38:33;;;;;;;5.97;3.53;;;;;;;;;;4867328;29;20033;-96
2022/04/05 12:41:01;;;;;;;3.88;2.72;;;;;;;;;;4884528;29;20400;-95
2022/04/05 12:43:27;;;;;;;3.30;2.60;;;;;;;;;;4884410;29;20057;-95
2022/04/05 12:45:54;;;;;;;5.03;2.67;;;;;;;;;;4871411;29;20029;-95
2022/04/05 12:48:21;;;;;;;4.03;2.47;;;;;;;;;;4888585;29;20025;-96
2022/04/05 12:50:49;;;;;;;4.03;2.75;;;;;;;;;;4887932;29;20025;-95
2022/04/05 12:53:30;;;;;;;4.85;3.17;;;;;;;;;;4870426;29;20036;-95
2022/04/05 12:56:08;;;;;;;13.63;10.48;;;;;;;;;;4870683;29;20072;-96
2022/04/05 12:58:38;;;;;;;7.82;4.85;;;;;;;;;;4872458;29;20036;-95
2022/04/05 13:01:18;;;;;;;4.40;2.92;;;;;;;;;;4886476;29;20052;-95
2022/04/05 13:03:44;;;;;;;4.30;3.03;;;;;;;;;;4871035;29;20057;-95
2022/04/05 13:06:20;;;;;;;7.40;2.33;;;;;;;;;;4887132;29;20032;-96
2022/04/05 13:08:47;;;;;;;2.95;2.10;;;;;;;;;;4888181;29;20324;-96
2022/04/05 13:11:33;;;;;;;7.63;2.22;;;;;;;;;;4872586;29;20025;-96
2022/04/05 13:14:01;;;;;;;3.83;2.60;;;;;;;;;;4888440;29;20029;-96
2022/04/05 13:16:28;;;;;;;5.43;2.78;;;;;;;;;;4871671;29;20447;-96
2022/04/05 13:18:54;;;;;;;6.07;2.83;;;;;;;;;;4867964;29;20377;-95
2022/04/05 13:21:21;;;;;;;5.03;3.60;;;;;;;;;;4887196;29;20029;-95
2022/04/05 13:23:59;;;;;;;6.65;2.92;;;;;;;;;;4889463;29;20025;-94
2022/04/05 13:26:27;;;;;;;4.22;2.38;;;;;;;;;;4872489;29;20040;-95
2022/04/05 13:29:09;;;;;;;4.25;2.40;;;;;;;;;;4873860;29;20029;-95
2022/04/05 13:31:40;;;;;;;7.28;3.22;;;;;;;;;;4890059;29;20033;-96
2022/04/05 13:34:06;;;;;;;5.18;3.00;;;;;;;;;;4889870;29;20029;-96
2022/04/05 13:36:33;;;;;;;7.25;4.28;;;;;;;;;;4888507;29;20017;-95
2022/04/05 13:38:59;;;;;;;5.97;2.90;;;;;;;;;;4872547;29;20029;-94
2022/04/05 13:41:25;;;;;;;7.88;3.78;;;;;;;;;;4878757;29;20056;-96
2022/04/05 13:43:56;;;;;;;6.45;3.60;;;;;;;;;;4878641;29;20045;-96
2022/04/05 13:46:22;;;;;;;8.65;4.88;;;;;;;;;;4879279;29;20032;-96
2022/04/05 13:48:49;;;;;;;4.75;3.08;;;;;;;;;;4894551;29;20089;-95
2022/04/05 13:51:16;;;;;;;8.95;3.65;;;;;;;;;;4894932;29;20085;-96
2022/04/05 13:53:42;;;;;;;8.98;3.58;;;;;;;;;;4874481;29;20049;-95
2022/04/05 13:56:09;;;;;;;4.80;3.10;;;;;;;;;;4850701;29;20097;-96
2022/04/05 13:58:36;;;;;;;5.10;3.40;;;;;;;;;;4867629;29;20030;-95
2022/04/05 14:01:02;;;;;;;4.72;3.10;;;;;;;;;;4850856;29;20029;-94
2022/04/05 14:03:32;;;;;;;8.70;3.92;;;;;;;;;;4867736;29;20405;-95
2022/04/05 14:05:58;;;;;;;7.38;3.70;;;;;;;;;;4870564;29;20033;-96
2022/04/05 14:08:25;;;;;;;7.40;2.63;;;;;;;;;;4867024;29;20029;-95
2022/04/05 14:10:51;;;;;;;3.15;1.90;;;;;;;;;;4850825;29;20093;-96
2022/04/05 14:13:17;;;;;;;5.03;3.15;;;;;;;;;;4851071;29;20037;-95
2022/04/05 14:15:43;;;;;;;6.90;3.60;;;;;;;;;;4850528;29;20340;-96
2022/04/05 14:18:09;;;;;;;8.85;3.60;;;;;;;;;;4866984;29;20320;-96
2022/04/05 14:20:35;;;;;;;9.55;3.50;;;;;;;;;;4851140;29;20037;-94
2022/04/05 14:23:01;;;;;;;5.20;3.00;;;;;;;;;;4851595;29;20041;-94
2022/04/05 14:25:28;;;;;;;8.18;3.78;;;;;;;;;;4868797;29;20034;-95
2022/04/05 14:27:54;;;;;;;7.63;3.50;;;;;;;;;;4855126;29;20040;-95
2022/04/05 14:30:20;;;;;;;7.97;4.00;;;;;;;;;;4851789;29;20025;-96
2022/04/05 14:32:46;;;;;;;11.68;3.92;;;;;;;;;;4850222;29;20358;-96
2022/04/05 14:35:12;;;;;;;7.68;4.45;;;;;;;;;;4866753;29;20033;-95
2022/04/05 14:37:41;;;;;;;32.15;4.32;;;;;;;;;;4866744;29;20029;-93
2022/04/05 14:40:08;;;;;;;9.95;2.92;;;;;;;;;;4851255;29;20025;-94
2022/04/05 14:42:34;;;;;;;20.83;3.90;;;;;;;;;;4867966;29;20108;-94
2022/04/05 14:45:00;;;;;;;9.82;3.30;;;;;;;;;;4865933;29;20026;-94
2022/04/05 14:47:26;;;;;;;9.20;3.13;;;;;;;;;;4866023;29;20112;-94
2022/04/05 14:49:54;;;;;;;16.33;6.10;;;;;;;;;;4867052;29;20325;-93
2022/04/05 14:52:21;;;;;;;23.00;6.68;;;;;;;;;;4867847;29;20029;-95
2022/04/05 14:54:49;;;;;;;11.20;7.43;;;;;;;;;;4865458;29;20044;-93
2022/04/05 14:57:18;;;;;;;11.40;4.75;;;;;;;;;;4866134;29;20167;-93
2022/04/05 14:59:44;;;;;;;9.73;6.57;;;;;;;;;;4848637;29;20033;-93
2022/04/05 15:02:12;;;;;;;11.88;7.70;;;;;;;;;;4867013;29;20044;-94
2022/04/05 15:04:38;;;;;;;14.00;7.72;;;;;;;;;;4865838;29;20041;-91
2022/04/05 15:07:08;;;;;;;8.57;4.07;;;;;;;;;;4849521;29;20046;-90
2022/04/05 15:09:37;;;;;;;16.13;11.25;;;;;;;;;;4845432;29;20029;-93
2022/04/05 15:12:11;;;;;;;33.63;22.10;;;;;;;;;;4855978;29;20109;-96
2022/04/05 15:17:29;;;;;;;62.60;45.95;;;;;;;;;;4867088;29;20113;-94
2022/04/05 15:20:01;;;;;;;28.77;20.27;;;;;;;;;;4869834;29;20397;-95
2022/04/05 15:22:28;;;;;;;92.95;63.97;;;;;;;;;;5127328;23;20101;-94
2022/04/05 15:24:54;;;;;;;9.65;6.10;;;;;;;;;;4885019;29;20033;-94
2022/04/05 15:27:20;;;;;;;8.38;4.88;;;;;;;;;;4885035;29;20017;-93
2022/04/05 15:29:46;;;;;;;11.80;4.28;;;;;;;;;;4867800;29;20121;-92
2022/04/05 15:32:14;;;;;;;8.07;3.75;;;;;;;;;;4884013;29;20033;-89
2022/04/05 15:34:41;;;;;;;29.30;4.70;;;;;;;;;;4883887;29;20036;-90
2022/04/05 15:37:08;;;;;;;8.95;4.38;;;;;;;;;;4869832;29;20041;-96
2022/04/05 15:39:34;;;;;;;6.20;3.28;;;;;;;;;;4887416;29;20045;-95
2022/04/05 15:42:05;;;;;;;6.72;3.90;;;;;;;;;;4890659;29;20127;-96
2022/04/05 15:44:38;;;;;;;8.55;3.40;;;;;;;;;;4892590;29;20047;-95
2022/04/05 15:47:06;;;;;;;6.93;4.00;;;;;;;;;;4874925;29;20116;-96
2022/04/05 15:49:32;;;;;;;10.25;4.95;;;;;;;;;;4871094;29;20034;-96
2022/04/05 15:52:00;;;;;;;9.55;4.97;;;;;;;;;;4889706;29;20033;-94
2022/04/05 15:54:27;;;;;;;8.40;4.57;;;;;;;;;;4890282;29;20030;-96
2022/04/05 15:56:54;;;;;;;6.22;3.72;;;;;;;;;;4894495;29;20036;-96
2022/04/05 15:59:27;;;;;;;9.30;5.65;;;;;;;;;;4882109;29;20033;-96
2022/04/05 16:17:41;;;;;;;15.15;6.63;;;;;;;;;;5845489;23;20032;-93
2022/04/05 17:06:52;;;;;;;28.67;13.55;;;;;;;;;;5445003;23;20069;-96
2022/04/05 17:09:24;;;;;;;16.50;9.93;;;;;;;;;;4885559;29;20048;-96
2022/04/05 17:12:23;;;;;;;12.57;7.60;;;;;;;;;;5344175;23;20031;31
2022/04/05 17:14:55;;;;;;;11.48;7.38;;;;;;;;;;4863396;29;20034;-96
2022/04/05 17:17:24;;;;;;;12.93;7.65;;;;;;;;;;4865122;29;20082;-96
2022/04/05 17:19:53;;;;;;;26.15;16.30;;;;;;;;;;4861859;29;20030;-96
2022/04/05 17:22:21;;;;;;;31.85;17.90;;;;;;;;;;4865343;29;20061;-95
2022/04/05 17:24:48;;;;;;;39.58;21.42;;;;;;;;;;4878657;29;20484;-96
2022/04/05 17:27:15;;;;;;;41.50;24.95;;;;;;;;;;4882143;29;20038;-96
2022/04/05 17:29:47;;;;;;;42.33;24.92;;;;;;;;;;4867977;29;20049;-95
2022/04/05 17:32:16;;;;;;;43.50;23.75;;;;;;;;;;4881847;29;20046;-94
2022/04/05 17:34:45;;;;;;;48.85;25.25;;;;;;;;;;4867662;29;20050;-96
2022/04/05 17:37:35;;;;;;;40.00;23.63;;;;;;;;;;4879275;29;20038;-96
2022/04/05 17:40:17;;;;;;;53.55;29.20;;;;;;;;;;4853780;29;20025;-96
2022/04/05 17:45:24;;;;;;;46.92;28.08;;;;;;;;;;5120822;23;20117;-95
2022/04/05 17:50:30;;;;;;;40.05;23.05;;;;;;;;;;5012689;23;20085;-95
2022/04/05 17:53:00;;;;;;;27.88;17.15;;;;;;;;;;4881875;29;20054;-96
2022/04/05 17:55:27;;;;;;;53.20;18.65;;;;;;;;;;4892765;29;20036;-94
2022/04/05 17:57:53;;;;;;;39.20;20.85;;;;;;;;;;4885514;29;20069;-94
2022/04/05 18:00:19;;;;;;;37.58;20.83;;;;;;;;;;4886979;29;20029;-95
2022/04/05 18:02:46;;;;;;;34.80;21.95;;;;;;;;;;4886116;29;20029;-94
2022/04/05 18:05:12;;;;;;;43.20;25.08;;;;;;;;;;4867715;29;20041;-94
2022/04/05 18:07:39;;;;;;;70.30;41.35;;;;;;;;;;4866735;29;20026;-94
2022/04/05 18:10:08;;;;;;;107.15;58.22;;;;;;;;;;4866759;29;20028;-94
2022/04/05 18:12:36;;;;;;;109.13;60.00;;;;;;;;;;4867379;29;20032;-94
2022/04/05 18:15:03;;;;;;;117.00;57.33;;;;;;;;;;4867095;29;20054;-95
2022/04/05 18:17:29;;;;;;;163.38;77.80;;;;;;;;;;4867419;29;20036;-95
2022/04/05 18:19:55;;;;;;;172.40;85.03;;;;;;;;;;4866877;29;20087;-94
2022/04/05 18:22:21;;;;;;;192.02;89.60;;;;;;;;;;4866795;29;20041;-95
2022/04/05 18:24:47;;;;;;;186.93;89.78;;;;;;;;;;4867479;29;20053;-94
2022/04/05 18:27:13;;;;;;;182.70;89.18;;;;;;;;;;4850803;29;20033;-90
2022/04/05 18:29:39;;;;;;;180.48;86.97;;;;;;;;;;4850644;29;20034;-94
2022/04/05 18:32:06;;;;;;;169.43;86.53;;;;;;;;;;4850497;29;20036;-93
2022/04/05 18:34:32;;;;;;;193.10;100.47;;;;;;;;;;4868654;29;20036;-93